createdAt,value
2023-04-02T00:00:20.743Z,2.35
2023-04-02T00:02:57.505Z,2.70
2023-04-02T00:05:51.450Z,2.50
2023-04-02T00:08:22.200Z,2.00
2023-04-02T00:10:55.075Z,2.15
2023-04-02T00:13:26.032Z,2.13
2023-04-02T00:15:57.912Z,2.20
2023-04-02T00:18:26.255Z,2.50
2023-04-02T00:21:32.873Z,1.92
2023-04-02T00:24:01.528Z,1.77
2023-04-02T00:26:38.060Z,2.35
2023-04-02T00:29:06.238Z,2.00
2023-04-02T00:31:34.407Z,1.90
2023-04-02T00:34:04.649Z,1.75
2023-04-02T00:36:34.306Z,1.83
2023-04-02T00:39:03.562Z,1.90
2023-04-02T00:41:32.160Z,2.60
2023-04-02T00:44:01.026Z,1.70
2023-04-02T00:46:34.705Z,1.42
2023-04-02T00:49:09.140Z,1.80
2023-04-02T00:51:39.098Z,2.13
2023-04-02T00:54:07.248Z,1.25
2023-04-02T00:56:39.459Z,1.45
2023-04-02T00:59:18.427Z,1.38
2023-04-02T01:01:45.906Z,1.55
2023-04-02T01:04:29.239Z,1.85
2023-04-02T01:06:56.753Z,1.75
2023-04-02T01:09:40.494Z,1.77
2023-04-02T01:12:25.049Z,1.40
2023-04-02T01:15:15.695Z,1.33
2023-04-02T01:18:01.526Z,1.63
2023-04-02T01:21:08.589Z,1.75
2023-04-02T01:24:05.233Z,1.10
2023-04-02T01:27:06.125Z,1.05
2023-04-02T01:29:38.641Z,1.20
2023-04-02T01:32:12.397Z,1.20
2023-04-02T01:34:44.714Z,1.17
2023-04-02T01:37:40.212Z,1.63
2023-04-02T01:40:36.545Z,2.03
2023-04-02T01:43:16.675Z,1.30
2023-04-02T01:45:44.334Z,1.48
2023-04-02T01:48:19.938Z,1.30
2023-04-02T01:50:49.924Z,1.38
2023-04-02T01:53:18.326Z,1.15
2023-04-02T01:55:52.574Z,1.20
2023-04-02T01:58:25.435Z,1.08
2023-04-02T02:01:04.445Z,0.90
2023-04-02T02:03:32.105Z,1.02
2023-04-02T02:06:00.249Z,1.35
2023-04-02T02:08:34.743Z,1.08
2023-04-02T02:11:02.660Z,1.08
2023-04-02T02:13:29.546Z,1.27
2023-04-02T02:16:00.436Z,1.40
2023-04-02T02:18:27.949Z,1.37
2023-04-02T02:20:57.069Z,0.88
2023-04-02T02:23:23.984Z,1.00
2023-04-02T02:25:51.471Z,0.90
2023-04-02T02:28:23.485Z,0.90
2023-04-02T02:30:57.669Z,0.90
2023-04-02T02:33:39.285Z,1.15
2023-04-02T02:36:23.324Z,0.85
2023-04-02T02:38:55.676Z,0.68
2023-04-02T02:41:52.178Z,0.80
2023-04-02T02:44:25.933Z,0.95
2023-04-02T02:46:58.345Z,1.27
2023-04-02T02:49:28.904Z,0.80
2023-04-02T02:54:38.673Z,0.98
2023-04-02T02:57:10.036Z,1.00
2023-04-02T02:59:38.017Z,1.00
2023-04-02T03:02:07.439Z,1.10
2023-04-02T03:04:36.604Z,0.98
2023-04-02T03:07:11.966Z,0.90
2023-04-02T03:09:51.152Z,0.82
2023-04-02T03:12:44.306Z,1.23
2023-04-02T03:15:27.908Z,1.05
2023-04-02T03:18:00.922Z,1.00
2023-04-02T03:20:44.339Z,1.30
2023-04-02T03:23:20.504Z,1.20
2023-04-02T03:26:10.026Z,1.05
2023-04-02T03:28:42.982Z,1.63
2023-04-02T03:31:23.396Z,1.45
2023-04-02T03:33:55.905Z,1.20
2023-04-02T03:36:31.084Z,1.10
2023-04-02T03:39:13.197Z,1.20
2023-04-02T03:41:52.285Z,1.65
2023-04-02T03:44:51.731Z,1.13
2023-04-02T03:47:34.932Z,1.08
2023-04-02T03:50:07.299Z,0.80
2023-04-02T03:52:37.086Z,1.40
2023-04-02T03:57:48.162Z,0.98
2023-04-02T04:00:17.600Z,1.00
2023-04-02T04:02:53.582Z,1.02
2023-04-02T04:05:29.820Z,1.00
2023-04-02T04:08:07.797Z,1.08
2023-04-02T04:10:35.465Z,1.05
2023-04-02T04:13:24.946Z,1.20
2023-04-02T04:15:56.446Z,0.82
2023-04-02T04:18:38.006Z,1.02
2023-04-02T04:21:30.962Z,0.80
2023-04-02T04:24:07.456Z,1.33
2023-04-02T04:26:53.625Z,0.98
2023-04-02T04:29:49.601Z,1.20
2023-04-02T04:32:39.351Z,1.52
2023-04-02T04:35:40.428Z,0.90
2023-04-02T04:38:21.919Z,1.10
2023-04-02T04:40:54.272Z,1.15
2023-04-02T04:43:41.067Z,0.77
2023-04-02T04:46:15.053Z,0.60
2023-04-02T04:49:07.855Z,0.82
2023-04-02T04:51:44.613Z,0.90
2023-04-02T04:54:15.826Z,1.10
2023-04-02T04:56:49.300Z,1.00
2023-04-02T04:59:27.928Z,0.98
2023-04-02T05:02:05.958Z,0.98
2023-04-02T05:04:40.451Z,0.80
2023-04-02T05:07:22.170Z,0.70
2023-04-02T05:10:18.372Z,0.90
2023-04-02T05:12:59.901Z,1.00
2023-04-02T05:15:51.952Z,1.02
2023-04-02T05:18:34.507Z,1.15
2023-04-02T05:21:27.632Z,1.08
2023-04-02T05:24:34.633Z,1.02
2023-04-02T05:27:24.926Z,1.20
2023-04-02T05:29:59.100Z,0.98
2023-04-02T05:32:31.336Z,1.70
2023-04-02T05:34:58.740Z,1.00
2023-04-02T05:37:29.364Z,0.85
2023-04-02T05:40:06.699Z,1.00
2023-04-02T05:42:36.021Z,0.95
2023-04-02T05:45:29.665Z,1.23
2023-04-02T05:48:02.175Z,1.23
2023-04-02T05:50:41.114Z,1.55
2023-04-02T05:53:25.765Z,1.00
2023-04-02T05:56:01.736Z,1.08
2023-04-02T05:58:37.316Z,0.90
2023-04-02T06:01:45.474Z,1.10
2023-04-02T06:04:52.545Z,1.20
2023-04-02T06:07:23.042Z,1.20
2023-04-02T06:10:05.103Z,1.23
2023-04-02T06:12:42.396Z,1.25
2023-04-02T06:15:15.757Z,1.25
2023-04-02T06:17:59.760Z,1.05
2023-04-02T06:20:28.798Z,0.95
2023-04-02T06:23:35.371Z,1.58
2023-04-02T06:26:15.271Z,1.13
2023-04-02T06:28:53.083Z,1.23
2023-04-02T06:31:37.442Z,1.23
2023-04-02T06:36:35.120Z,1.48
2023-04-02T06:39:09.205Z,0.88
2023-04-02T06:41:37.140Z,0.68
2023-04-02T06:44:28.145Z,1.40
2023-04-02T06:47:34.669Z,1.10
2023-04-02T06:50:42.183Z,0.98
2023-04-02T06:53:21.618Z,1.00
2023-04-02T06:55:56.572Z,1.30
2023-04-02T06:58:27.811Z,1.33
2023-04-02T07:00:55.332Z,0.95
2023-04-02T07:03:34.212Z,1.40
2023-04-02T07:06:15.140Z,0.90
2023-04-02T07:08:42.880Z,1.20
2023-04-02T07:11:20.819Z,1.40
2023-04-02T07:13:49.982Z,0.95
2023-04-02T07:16:20.292Z,1.15
2023-04-02T07:18:48.662Z,1.45
2023-04-02T07:21:15.698Z,1.00
2023-04-02T07:23:42.899Z,1.17
2023-04-02T07:26:14.541Z,1.23
2023-04-02T07:28:42.078Z,1.45
2023-04-02T07:31:18.871Z,0.75
2023-04-02T07:33:46.426Z,1.55
2023-04-02T07:36:15.621Z,1.20
2023-04-02T07:38:42.801Z,1.30
2023-04-02T07:41:10.089Z,0.98
2023-04-02T07:43:37.718Z,1.88
2023-04-02T07:46:05.460Z,1.35
2023-04-02T07:48:32.449Z,1.80
2023-04-02T07:51:00.657Z,2.50
2023-04-02T07:53:33.805Z,2.17
2023-04-02T07:56:02.218Z,1.17
2023-04-02T07:58:30.383Z,1.13
2023-04-02T08:00:57.410Z,0.82
2023-04-02T08:03:24.510Z,1.33
2023-04-02T08:05:53.227Z,1.98
2023-04-02T08:08:21.225Z,1.33
2023-04-02T08:10:48.732Z,1.20
2023-04-02T08:13:16.260Z,1.05
2023-04-02T08:15:43.806Z,1.10
2023-04-02T08:18:11.491Z,2.10
2023-04-02T08:20:41.506Z,2.10
2023-04-02T08:23:26.900Z,0.95
2023-04-02T08:25:59.954Z,1.98
2023-04-02T08:28:27.155Z,1.80
2023-04-02T08:30:54.047Z,1.90
2023-04-02T08:33:21.206Z,2.42
2023-04-02T08:35:48.939Z,1.20
2023-04-02T08:38:17.636Z,0.90
2023-04-02T08:40:53.330Z,1.10
2023-04-02T08:43:41.992Z,1.30
2023-04-02T08:46:23.526Z,0.88
2023-04-02T08:48:55.496Z,1.25
2023-04-02T08:51:32.038Z,1.17
2023-04-02T08:54:21.366Z,1.40
2023-04-02T08:56:53.997Z,1.02
2023-04-02T08:59:41.676Z,1.15
2023-04-02T09:02:48.432Z,1.90
2023-04-02T09:05:24.027Z,1.58
2023-04-02T09:07:52.620Z,0.90
2023-04-02T09:10:19.813Z,0.60
2023-04-02T09:12:51.782Z,1.00
2023-04-02T09:18:00.334Z,0.60
2023-04-02T09:20:28.648Z,0.63
2023-04-02T09:22:56.682Z,0.65
2023-04-02T09:25:29.883Z,0.52
2023-04-02T09:27:58.511Z,0.77
2023-04-02T09:31:06.938Z,0.70
2023-04-02T09:33:42.793Z,0.60
2023-04-02T09:36:34.801Z,0.77
2023-04-02T09:39:23.222Z,0.70
2023-04-02T09:42:02.713Z,0.40
2023-04-02T09:44:31.821Z,0.55
2023-04-02T09:47:05.501Z,0.82
2023-04-02T09:49:39.807Z,0.80
2023-04-02T09:52:14.679Z,0.52
2023-04-02T09:54:44.470Z,0.80
2023-04-02T09:57:23.805Z,0.60
2023-04-02T10:00:29.966Z,0.90
2023-04-02T10:03:05.369Z,1.00
2023-04-02T10:05:40.427Z,0.73
2023-04-02T10:08:18.277Z,0.80
2023-04-02T10:10:49.997Z,0.60
2023-04-02T10:16:13.076Z,0.50
2023-04-02T10:18:48.781Z,0.60
2023-04-02T10:21:19.112Z,0.60
2023-04-02T10:23:46.177Z,0.50
2023-04-02T10:26:52.709Z,0.85
2023-04-02T10:30:02.560Z,0.40
2023-04-02T10:32:39.774Z,0.30
2023-04-02T10:35:23.444Z,0.80
2023-04-02T10:37:59.864Z,0.43
2023-04-02T10:40:48.353Z,0.63
2023-04-02T10:43:33.807Z,1.40
2023-04-02T10:46:27.772Z,0.82
2023-04-02T10:49:08.372Z,0.50
2023-04-02T10:51:46.472Z,0.50
2023-04-02T10:54:43.739Z,0.32
2023-04-02T10:57:35.238Z,0.40
2023-04-02T11:00:18.243Z,0.70
2023-04-02T11:02:51.556Z,0.77
2023-04-02T11:05:51.361Z,0.60
2023-04-02T11:08:21.913Z,0.70
2023-04-02T11:10:51.329Z,0.82
2023-04-02T11:13:29.363Z,0.60
2023-04-02T11:15:56.458Z,0.65
2023-04-02T11:18:36.194Z,0.75
2023-04-02T11:21:08.675Z,0.80
2023-04-02T11:23:40.382Z,0.43
2023-04-02T11:26:38.274Z,0.85
2023-04-02T11:29:16.402Z,0.60
2023-04-02T11:31:44.437Z,0.65
2023-04-02T11:34:14.104Z,0.60
2023-04-02T11:37:01.721Z,0.80
2023-04-02T11:39:53.487Z,0.82
2023-04-02T11:42:31.137Z,0.98
2023-04-02T11:45:52.920Z,0.90
2023-04-02T11:48:33.962Z,0.80
2023-04-02T11:51:04.810Z,0.70
2023-04-02T11:53:34.425Z,1.00
2023-04-02T11:56:23.863Z,0.50
2023-04-02T11:59:16.538Z,0.93
2023-04-02T12:02:23.268Z,0.60
2023-04-02T12:05:14.826Z,0.80
2023-04-02T12:08:08.292Z,0.82
2023-04-02T12:10:54.747Z,1.10
2023-04-02T12:13:49.959Z,1.00
2023-04-02T12:16:18.095Z,0.93
2023-04-02T12:18:47.342Z,1.90
2023-04-02T12:21:24.238Z,1.15
2023-04-02T12:23:54.405Z,1.30
2023-04-02T12:26:42.443Z,0.98
2023-04-02T12:29:17.254Z,0.70
2023-04-02T12:31:46.535Z,0.60
2023-04-02T12:34:18.928Z,0.65
2023-04-02T12:36:54.466Z,0.98
2023-04-02T12:39:22.121Z,0.80
2023-04-02T12:41:49.254Z,1.00
2023-04-02T12:44:18.708Z,0.88
2023-04-02T12:46:46.548Z,1.10
2023-04-02T12:49:39.848Z,0.90
2023-04-02T12:52:09.474Z,0.93
2023-04-02T12:54:55.617Z,0.95
2023-04-02T12:57:36.399Z,0.73
2023-04-02T13:00:28.772Z,1.20
2023-04-02T13:05:51.612Z,0.88
2023-04-02T13:08:23.209Z,1.40
2023-04-02T13:10:56.212Z,0.98
2023-04-02T13:13:30.377Z,0.70
2023-04-02T13:16:19.983Z,0.70
2023-04-02T13:18:49.016Z,0.60
2023-04-02T13:21:29.352Z,0.80
2023-04-02T13:23:56.393Z,1.02
2023-04-02T13:26:25.830Z,0.50
2023-04-02T13:29:01.594Z,0.70
2023-04-02T13:31:32.690Z,0.65
2023-04-02T13:33:59.681Z,0.57
2023-04-02T13:36:29.190Z,0.90
2023-04-02T13:38:56.571Z,0.68
2023-04-02T13:41:42.915Z,1.00
2023-04-02T13:44:19.412Z,1.08
2023-04-02T13:46:46.572Z,1.30
2023-04-02T13:49:13.474Z,0.55
2023-04-02T13:51:46.526Z,0.80
2023-04-02T13:54:38.956Z,0.90
2023-04-02T13:57:43.895Z,0.60
2023-04-02T14:00:11.746Z,1.00
2023-04-02T14:02:47.535Z,0.50
2023-04-02T14:05:24.078Z,1.00
2023-04-02T14:08:09.927Z,0.60
2023-04-02T14:10:55.556Z,0.68
2023-04-02T14:13:50.706Z,0.90
2023-04-02T14:16:38.847Z,0.65
2023-04-02T14:19:37.922Z,0.80
2023-04-02T14:22:29.565Z,1.05
2023-04-02T14:25:21.978Z,1.25
2023-04-02T14:28:22.303Z,1.00
2023-04-02T14:31:16.567Z,0.70
2023-04-02T14:34:04.157Z,0.80
2023-04-02T14:36:56.526Z,0.77
2023-04-02T14:40:04.112Z,1.23
2023-04-02T14:42:57.619Z,0.98
2023-04-02T14:46:04.471Z,1.10
2023-04-02T14:48:56.624Z,0.82
2023-04-02T14:51:35.032Z,0.68
2023-04-02T14:54:29.262Z,0.90
2023-04-02T14:57:18.897Z,1.00
2023-04-02T15:00:13.436Z,0.70
2023-04-02T15:02:45.921Z,0.70
2023-04-02T15:05:37.689Z,1.27
2023-04-02T15:08:16.310Z,0.95
2023-04-02T15:10:56.405Z,0.50
2023-04-02T15:13:30.492Z,0.90
2023-04-02T15:16:13.914Z,0.95
2023-04-02T15:18:40.866Z,0.55
2023-04-02T15:21:30.414Z,0.82
2023-04-02T15:24:06.112Z,0.85
2023-04-02T15:27:23.920Z,0.57
2023-04-02T15:30:13.148Z,1.42
2023-04-02T15:32:44.007Z,0.65
2023-04-02T15:35:37.054Z,1.27
2023-04-02T15:38:12.326Z,0.77
2023-04-02T15:40:46.392Z,1.30
2023-04-02T15:43:38.809Z,1.15
2023-04-02T15:46:31.548Z,0.95
2023-04-02T15:49:15.476Z,0.77
2023-04-02T15:52:08.364Z,1.15
2023-04-02T15:55:09.804Z,0.95
2023-04-02T15:58:09.649Z,1.35
2023-04-02T16:00:49.217Z,1.80
2023-04-02T16:03:56.049Z,1.10
2023-04-02T16:06:32.508Z,1.45
2023-04-02T16:09:08.607Z,1.20
2023-04-02T16:11:36.512Z,0.77
2023-04-02T16:14:19.063Z,1.38
2023-04-02T16:16:47.581Z,1.23
2023-04-02T16:19:34.948Z,1.20
2023-04-02T16:22:20.747Z,0.85
2023-04-02T16:24:54.065Z,0.73
2023-04-02T16:27:31.949Z,1.45
2023-04-02T16:30:24.222Z,0.82
2023-04-02T16:33:31.250Z,0.98
2023-04-02T16:36:15.600Z,1.17
2023-04-02T16:39:04.137Z,0.93
2023-04-02T16:42:00.558Z,1.05
2023-04-02T16:44:53.284Z,1.60
2023-04-02T16:47:40.460Z,1.42
2023-04-02T16:50:47.162Z,0.98
2023-04-02T16:54:00.385Z,1.67
2023-04-02T16:56:55.910Z,1.20
2023-04-02T16:59:44.637Z,1.70
2023-04-02T17:02:36.610Z,1.75
2023-04-02T17:07:45.192Z,1.40
2023-04-02T17:10:40.080Z,0.77
2023-04-02T17:13:30.199Z,1.38
2023-04-02T17:16:21.835Z,1.42
2023-04-02T17:18:57.983Z,1.30
2023-04-02T17:21:27.416Z,1.55
2023-04-02T17:23:57.435Z,1.40
2023-04-02T17:26:27.629Z,1.35
2023-04-02T17:28:55.406Z,1.50
2023-04-02T17:31:24.231Z,1.50
2023-04-02T17:33:51.368Z,1.60
2023-04-02T17:36:30.090Z,1.60
2023-04-02T17:39:11.712Z,1.67
2023-04-02T17:41:44.621Z,1.63
2023-04-02T17:44:31.907Z,1.45
2023-04-02T17:47:38.645Z,0.85
2023-04-02T17:50:46.261Z,2.10
2023-04-02T17:53:43.896Z,1.40
2023-04-02T17:56:23.761Z,1.23
2023-04-02T17:59:21.826Z,1.17
2023-04-02T18:02:19.109Z,1.00
2023-04-02T18:05:10.187Z,1.38
2023-04-02T18:08:03.191Z,1.05
2023-04-02T18:10:54.712Z,1.58
2023-04-02T18:13:36.202Z,1.27
2023-04-02T18:16:34.783Z,1.40
2023-04-02T18:19:28.269Z,1.27
2023-04-02T18:22:06.838Z,0.82
2023-04-02T18:24:47.619Z,0.80
2023-04-02T18:27:40.663Z,0.90
2023-04-02T18:30:19.086Z,0.90
2023-04-02T18:33:03.330Z,0.80
2023-04-02T18:35:43.863Z,1.00
2023-04-02T18:38:37.483Z,1.20
2023-04-02T18:41:34.734Z,1.30
2023-04-02T18:44:34.096Z,1.30
2023-04-02T18:47:09.484Z,1.23
2023-04-02T18:49:41.445Z,0.85
2023-04-02T18:52:14.113Z,0.98
2023-04-02T18:54:51.762Z,1.00
2023-04-02T18:57:29.764Z,0.88
2023-04-02T19:00:26.433Z,1.00
2023-04-02T19:03:18.692Z,1.05
2023-04-02T19:05:52.319Z,1.08
2023-04-02T19:08:48.236Z,1.65
2023-04-02T19:11:28.395Z,1.13
2023-04-02T19:13:56.673Z,0.98
2023-04-02T19:16:34.851Z,1.00
2023-04-02T19:19:12.107Z,1.30
2023-04-02T19:22:05.764Z,0.80
2023-04-02T19:25:03.284Z,1.25
2023-04-02T19:28:00.832Z,0.90
2023-04-02T19:30:54.421Z,0.95
2023-04-02T19:33:44.283Z,1.00
2023-04-02T19:36:41.669Z,1.17
2023-04-02T19:39:39.499Z,0.73
2023-04-02T19:42:44.478Z,1.42
2023-04-02T19:45:28.546Z,0.63
2023-04-02T19:47:59.324Z,1.10
2023-04-02T19:50:26.481Z,1.60
2023-04-02T19:52:58.686Z,1.60
2023-04-02T19:55:31.261Z,1.10
2023-04-02T19:58:08.814Z,1.27
2023-04-02T20:00:42.453Z,1.08
2023-04-02T20:03:25.545Z,1.25
2023-04-02T20:05:55.764Z,0.88
2023-04-02T20:08:27.533Z,1.10
2023-04-02T20:10:59.217Z,0.95
2023-04-02T20:13:27.777Z,1.00
2023-04-02T20:16:00.702Z,1.15
2023-04-02T20:18:31.226Z,1.13
2023-04-02T20:20:58.588Z,1.10
2023-04-02T20:23:26.926Z,1.58
2023-04-02T20:25:57.192Z,2.20
2023-04-02T20:28:25.530Z,1.17
2023-04-02T20:30:52.499Z,0.90
2023-04-02T20:33:22.566Z,0.70
2023-04-02T20:35:50.779Z,0.80
2023-04-02T20:38:18.346Z,1.38
2023-04-02T20:40:52.136Z,0.98
2023-04-02T20:43:19.050Z,1.02
2023-04-02T20:46:01.095Z,1.33
2023-04-02T20:48:30.748Z,1.15
2023-04-02T20:50:57.924Z,1.20
2023-04-02T20:53:24.805Z,1.42
2023-04-02T20:55:51.776Z,1.17
2023-04-02T20:58:19.055Z,1.23
2023-04-02T21:00:46.143Z,1.73
2023-04-02T21:03:12.997Z,0.73
2023-04-02T21:05:44.663Z,0.85
2023-04-02T21:08:12.317Z,0.88
2023-04-02T21:10:39.698Z,0.80
2023-04-02T21:13:07.055Z,0.82
2023-04-02T21:15:34.440Z,0.90
2023-04-02T21:18:01.509Z,1.00
2023-04-02T21:20:28.487Z,0.57
2023-04-02T21:22:55.542Z,0.90
2023-04-02T21:25:22.447Z,1.45
2023-04-02T21:27:49.262Z,1.08
2023-04-02T21:30:16.315Z,0.98
2023-04-02T21:32:43.258Z,0.85
2023-04-02T21:35:10.340Z,1.25
2023-04-02T21:37:37.161Z,0.63
2023-04-02T21:40:04.411Z,0.88
2023-04-02T21:42:31.311Z,1.20
2023-04-02T21:44:58.123Z,0.90
2023-04-02T21:47:25.051Z,0.80
2023-04-02T21:49:51.818Z,0.80
2023-04-02T21:52:18.644Z,0.50
2023-04-02T21:54:45.430Z,0.50
2023-04-02T21:57:12.262Z,0.70
2023-04-02T21:59:39.108Z,1.00
2023-04-02T22:02:06.928Z,1.08
2023-04-02T22:04:33.770Z,0.82
2023-04-02T22:07:01.216Z,1.10
2023-04-02T22:09:28.221Z,1.35
2023-04-02T22:11:59.664Z,1.05
2023-04-02T22:14:27.616Z,0.93
2023-04-02T22:16:54.878Z,0.93
2023-04-02T22:19:22.092Z,1.10
2023-04-02T22:21:49.131Z,0.70
2023-04-02T22:24:25.077Z,1.25
2023-04-02T22:26:52.121Z,1.38
2023-04-02T22:29:19.010Z,1.00
2023-04-02T22:31:46.283Z,0.95
2023-04-02T22:34:13.343Z,1.05
2023-04-02T22:36:40.187Z,0.70
2023-04-02T22:39:10.397Z,0.82
2023-04-02T22:41:37.384Z,0.68
2023-04-02T22:44:04.507Z,0.93
2023-04-02T22:46:31.674Z,1.55
2023-04-02T22:48:59.140Z,1.00
2023-04-02T22:51:28.066Z,0.80
2023-04-02T22:53:55.774Z,0.73
2023-04-02T22:56:26.756Z,0.93
2023-04-02T22:58:53.685Z,0.60
2023-04-02T23:01:23.545Z,1.50
2023-04-02T23:03:53.752Z,0.60
2023-04-02T23:06:21.242Z,0.90
2023-04-02T23:08:48.083Z,0.80
2023-04-02T23:11:19.161Z,1.10
2023-04-02T23:13:48.543Z,1.10
2023-04-02T23:16:16.008Z,0.82
2023-04-02T23:18:44.171Z,0.93
2023-04-02T23:21:11.144Z,1.05
2023-04-02T23:23:38.251Z,1.30
2023-04-02T23:26:11.091Z,1.10
2023-04-02T23:28:39.286Z,1.02
2023-04-02T23:31:07.928Z,1.00
2023-04-02T23:33:35.596Z,1.10
2023-04-02T23:36:14.992Z,0.82
2023-04-02T23:38:42.044Z,0.88
2023-04-02T23:41:15.927Z,1.48
2023-04-02T23:43:43.010Z,0.63
2023-04-02T23:46:10.270Z,1.30
2023-04-02T23:48:37.247Z,0.73
2023-04-02T23:51:04.279Z,1.08
2023-04-02T23:53:31.361Z,1.00
2023-04-02T23:55:58.159Z,0.98
2023-04-02T23:58:25.112Z,0.85
